Chickering American River Reserve, California Weather observations

Data are for 10 minute period ending at time listed.
 Day   Time   Solar   Ave.   Ave.  Ave.  Vector  Max.   Baro.   Total    
  of    of     Rad.   Air    Rel.  Wind   Wind   Wind  Press.  Precip.   
Year   Day            Temp.  Hum.  Speed  Dir.   Gust                    
2016   (PST)  Kw/m2    F      %     mph   deg.    mph    mb.     in.     
-------------------------------------------------------------------------
 120    0:00   0.00   31.8    94    1.5   192     2.3   816.5    0.00 
 120    0:10   0.00   31.6    95    1.5   205     2.7   816.5    0.00 
 120    0:20   0.00   32.1    93    1.3   219     2.2   816.5    0.00 
 120    0:30   0.00   32.1    92    1.9   215     2.9   816.4    0.00 
 120    0:40   0.00   31.9    92    1.7   201     2.7   816.3    0.00 
 120    0:50   0.00   31.6    94    1.4   188     2.0   816.4    0.00 
 120    1:00   0.00   31.4    95    1.6   192     2.3   816.3    0.00 
 120    1:10   0.00   31.4    95    1.3   199     2.3   816.3    0.00 
 120    1:20   0.00   31.4    95    0.9   205     2.5   816.2    0.00 
 120    1:30   0.00   31.4    94    1.6   204     2.9   816.1    0.00 
 120    1:40   0.00   31.5    94    1.5   216     2.3   816.0    0.00 
 120    1:50   0.00   32.3    91    0.8   197     1.8   815.9    0.00 
 120    2:00   0.00   31.7    93    1.3   194     2.0   816.0    0.00 
 120    2:10   0.00   31.7    94    1.3   216     2.3   816.0    0.00 
 120    2:20   0.00   31.7    94    1.6   198     2.5   816.0    0.00 
 120    2:30   0.00   31.6    94    1.5   203     2.6   816.1    0.00 
 120    2:40   0.00   31.8    94    1.5   196     2.6   816.3    0.00 
 120    2:50   0.00   31.7    94    1.5   204     2.6   816.3    0.00 
 120    3:00   0.00   31.7    94    1.4   198     2.2   816.3    0.00 
 120    3:10   0.00   31.5    95    1.3   189     2.5   816.2    0.00 
 120    3:20   0.00   31.4    95    0.7   198     1.4   816.2    0.00 
 120    3:30   0.00   31.5    94    1.1   224     1.8   816.2    0.00 
 120    3:40   0.00   31.5    93    1.3   197     1.9   816.2    0.00 
 120    3:50   0.00   31.0    95    1.5   195     2.3   816.3    0.00 
 120    4:00   0.00   30.8    95    1.3   199     2.2   816.2    0.00 
 120    4:10   0.00   30.7    95    1.5   194     2.1   816.2    0.00 
 120    4:20   0.00   30.7    96    1.5   199     2.0   816.3    0.00 
 120    4:30   0.00   30.8    96    1.2   201     1.8   816.3    0.00 
 120    4:40   0.00   30.8    96    1.1   196     1.8   816.3    0.00 
 120    4:50   0.00   30.8    96    1.6   208     2.5   816.2    0.00 
 120    5:00   0.00   30.8    96    0.5   189     2.0   816.1    0.00 
 120    5:10   0.00   31.0    97    0.7   220     1.8   816.2    0.00 
 120    5:20   0.01   31.4    96    1.1   194     2.0   816.2    0.00 
 120    5:30   0.02   31.3    96    0.6   191     1.6   816.2    0.00 
 120    5:40   0.03   31.7    96    1.2   209     2.4   816.4    0.00 
 120    5:50   0.04   32.0    95    1.2   212     1.9   816.5    0.00 
 120    6:00   0.05   32.6    94    0.9   196     2.0   816.5    0.00 
 120    6:10   0.07   34.0    93    0.2   148     1.8   816.4    0.00 
 120    6:20   0.09   36.3    89    0.1    83     1.3   816.4    0.00 
 120    6:30   0.14   37.9    84    0.5    54     2.0   816.3    0.00 
 120    6:40   0.26   40.1    76    0.4    32     1.8   816.5    0.00 
 120    6:50   0.23   41.9    70    0.5    61     1.6   816.6    0.00 
 120    7:00   0.22   43.1    68    0.1    42     1.0   816.7    0.00 
 120    7:10   0.29   44.8    66    0.3    80     2.0   816.9    0.00 
 120    7:20   0.24   45.5    71    0.4   115     1.4   817.0    0.00 
 120    7:30   0.26   46.7    63    0.5    20     3.5   817.0    0.00 
 120    7:40   0.42   47.9    58    1.0    23     5.2   817.0    0.00 
 120    7:50   0.34   49.4    53    1.1   247     4.9   817.0    0.00 
 120    8:00   0.21   48.8    54    0.7   104     3.7   817.1    0.00 
 120    8:10   0.27   48.1    57    1.2   147     4.5   817.3    0.00 
 120    8:20   0.32   48.2    57    1.6   142     7.4   817.2    0.00 
 120    8:30   0.53   49.4    55    1.3   163     4.3   817.2    0.00 
 120    8:40   0.47   50.6    48    1.6    52     3.6   817.2    0.00 
 120    8:50   0.64   50.3    46    2.0   191     7.7   817.2    0.00 
 120    9:00   0.63   51.8    44    1.5   120     5.3   817.2    0.00 
 120    9:10   0.67   51.4    43    2.0   165     8.3   817.2    0.00 
 120    9:20   0.71   52.1    42    1.5   188     5.1   817.2    0.00 
 120    9:30   0.63   52.5    43    1.5     6     7.5   817.2    0.00 
 120    9:40   0.83   52.8    43    1.7   167     5.3   817.1    0.00 
 120    9:50   0.86   52.9    43    2.2   131     7.1   817.0    0.00 
 120   10:00   0.89   53.4    40    1.9   158     7.7   816.9    0.00 
 120   10:10   0.85   53.8    41    2.4     3    10.6   816.9    0.00 
 120   10:20   0.95   53.9    40    2.8   162     9.6   816.9    0.00 
 120   10:30   0.95   54.3    38    2.3   156     8.4   816.7    0.00 
 120   10:40   0.96   54.0    37    2.5   131     9.4   816.6    0.00 
 120   10:50   0.95   54.5    36    2.7    58     7.6   816.5    0.00 
 120   11:00   0.96   55.0    36    1.8    33     6.7   816.5    0.00 
 120   11:10   0.95   54.9    37    2.3   135     7.5   816.4    0.00 
 120   11:20   1.03   55.8    35    1.6    62     4.6   816.4    0.00 
 120   11:30   1.04   56.2    34    2.1   103     8.4   816.2    0.00 
 120   11:40   1.05   55.7    36    2.7   145     9.2   816.0    0.00 
 120   11:50   1.00   56.2    38    2.7    94     9.7   816.0    0.00 
 120   12:00   0.99   54.8    39    2.5    72     7.2   815.9    0.00 
 120   12:10   1.02   55.5    36    3.6   350    10.7   815.8    0.00 
 120   12:20   0.87   55.9    35    2.2    80     7.7   815.7    0.00 
 120   12:30   0.72   55.1    37    2.1    93     8.1   815.7    0.00 
 120   12:40   1.04   54.9    39    2.3    59     7.3   815.6    0.00 
 120   12:50   1.03   56.3    41    2.4    64     6.6   815.5    0.00 
 120   13:00   0.99   56.6    42    2.6    30     8.0   815.5    0.00 

Return to Chickering American River Reserve graphs page.


Western Regional Climate Center,wrcc@dri.edu